Time;durP1;ratioP1;P1;durP2;ratioP2;P2;SDS_P1;SDS_P2;PMS_P1;PMS_P2;Temp;Humidity;BMP_temperature;BMP_pressure;BME280_temperature;BME280_humidity;BME280_pressure;Samples;Min_cycle;Max_cycle;Signal;HPM_P1;HPM_P2
2022/09/09 00:02:23;;;;;;;4.80;2.10;;;;;;;9.12;59.75;100337.91;6219143;23;20150;-88
2022/09/09 00:05:01;;;;;;;5.72;1.95;;;;;;;9.23;60.49;100344.94;6218743;23;20012;-88
2022/09/09 00:07:49;;;;;;;7.30;1.90;;;;;;;9.05;60.12;100315.56;6244033;23;20019;-88
2022/09/09 00:10:38;;;;;;;4.10;2.13;;;;;;;9.11;59.92;100317.19;6243681;23;20020;-89
2022/09/09 00:13:16;;;;;;;7.30;2.47;;;;;;;9.37;60.47;100356.06;6245410;22;20043;-89
2022/09/09 00:16:22;;;;;;;5.30;2.47;;;;;;;9.34;60.07;100357.47;6245879;22;20090;-89
2022/09/09 00:19:05;;;;;;;;;;;;;;;9.28;60.07;100355.84;6219657;23;20058;-89
2022/09/09 00:24:10;;;;;;;6.78;2.55;;;;;;;9.17;59.96;100333.25;6245617;22;20094;-88
2022/09/09 00:26:43;;;;;;;4.47;2.40;;;;;;;9.17;60.30;100340.59;6244202;23;20087;-89
2022/09/09 00:29:12;;;;;;;10.63;1.90;;;;;;;9.31;60.44;100362.66;6243953;23;20263;-90
2022/09/09 00:31:40;;;;;;;3.97;1.92;;;;;;;9.11;59.78;100320.72;6243795;23;20020;-89
2022/09/09 00:34:13;;;;;;;4.68;2.10;;;;;;;9.27;59.46;100334.28;6193295;23;20108;-88
2022/09/09 00:36:41;;;;;;;6.00;1.98;;;;;;;9.33;59.64;100341.34;6245258;22;20066;-88
2022/09/09 00:39:35;;;;;;;4.13;1.80;;;;;;;9.13;59.33;100310.34;6243672;23;20362;-89
2022/09/09 00:42:15;;;;;;;3.30;1.88;;;;;;;9.21;59.76;100306.22;6245303;22;20028;-89
2022/09/09 00:44:56;;;;;;;4.97;1.98;;;;;;;9.45;59.84;100371.06;6218260;23;20020;-89
2022/09/09 00:47:45;;;;;;;5.20;2.05;;;;;;;9.49;59.37;100367.50;6218685;23;20457;-88
2022/09/09 00:50:49;;;;;;;3.13;1.80;;;;;;;9.45;59.83;100371.88;6218202;23;20031;-88
2022/09/09 00:53:33;;;;;;;5.95;2.03;;;;;;;9.57;59.32;100375.13;6243452;23;20377;-88
2022/09/09 00:56:12;;;;;;;5.55;2.17;;;;;;;9.15;59.10;100301.88;6217943;23;20557;-88
2022/09/09 00:58:38;;;;;;;6.38;1.83;;;;;;;9.36;58.84;100341.63;6243834;23;20027;-89
2022/09/09 01:01:09;;;;;;;5.85;1.85;;;;;;;9.23;58.75;100327.75;6244899;22;20016;-89
2022/09/09 01:03:39;;;;;;;4.72;1.80;;;;;;;9.17;59.48;100322.34;6243579;23;20378;-88
2022/09/09 01:06:16;;;;;;;3.15;1.70;;;;;;;9.37;59.64;100356.91;6243167;23;20023;-88
2022/09/09 01:09:12;;;;;;;3.75;1.77;;;;;;;9.60;59.89;100390.94;6218098;23;20024;-88
2022/09/09 01:12:15;;;;;;;2.95;1.83;;;;;;;9.37;59.16;100369.72;6217890;23;20452;-88
2022/09/09 01:14:45;;;;;;;3.97;1.90;;;;;;;9.16;59.49;100337.06;6228451;23;20095;-88
2022/09/09 01:17:17;;;;;;;12.07;2.13;;;;;;;9.43;59.36;100386.91;6243144;23;20052;-90
2022/09/09 01:20:32;;;;;;;5.38;2.33;;;;;;;8.86;59.64;100326.25;6219553;23;20048;-89
2022/09/09 01:23:19;;;;;;;4.80;1.70;;;;;;;9.14;60.54;100363.81;6195112;23;20020;-88
2022/09/09 01:26:12;;;;;;;4.47;2.10;;;;;;;9.23;60.05;100393.25;6194658;23;20020;-88
2022/09/09 01:28:40;;;;;;;4.18;1.88;;;;;;;8.98;60.10;100364.94;6243000;23;20051;-89
2022/09/09 01:31:17;;;;;;;3.08;1.80;;;;;;;9.27;60.08;100399.78;6243264;23;20482;-88
2022/09/09 01:33:46;;;;;;;3.67;2.00;;;;;;;8.85;60.22;100347.25;6243531;23;20055;-88
2022/09/09 01:36:57;;;;;;;6.95;1.95;;;;;;;9.18;60.16;100383.97;6217681;23;20023;-88
2022/09/09 01:39:24;;;;;;;6.05;1.80;;;;;;;9.11;60.17;100366.28;6202131;23;20023;-87
2022/09/09 01:41:59;;;;;;;4.18;1.92;;;;;;;9.07;60.51;100403.38;6243522;23;20087;-89
2022/09/09 01:44:27;;;;;;;6.93;1.95;;;;;;;8.72;60.46;100345.09;6217679;23;20016;-88
2022/09/09 01:49:22;;;;;;;4.85;2.00;;;;;;;9.10;60.92;100391.91;6244403;23;20476;-89
2022/09/09 01:51:53;;;;;;;5.47;2.10;;;;;;;9.02;60.59;100368.75;6217936;23;20023;-89
2022/09/09 01:54:28;;;;;;;5.57;2.22;;;;;;;8.92;60.81;100363.31;6193700;23;20020;-89
2022/09/09 01:57:17;;;;;;;5.55;2.00;;;;;;;9.32;61.39;100414.22;6218366;23;20016;-90
2022/09/09 01:59:57;;;;;;;9.05;2.83;;;;;;;8.97;60.72;100371.47;6193289;23;20020;-90
2022/09/09 02:02:36;;;;;;;6.88;2.15;;;;;;;8.90;60.63;100369.03;6217838;23;20023;-89
2022/09/09 02:05:13;;;;;;;;;;;;;;;9.26;60.97;100422.69;6194743;23;20090;-89
2022/09/09 02:07:42;;;;;;;5.82;2.28;;;;;;;8.88;60.82;100368.50;6217934;23;20349;-89
2022/09/09 02:10:45;;;;;;;4.18;2.10;;;;;;;9.02;60.47;100378.84;6188366;23;20442;-92
2022/09/09 02:13:22;;;;;;;3.20;2.10;;;;;;;9.10;61.24;100381.81;6243051;23;20044;-89
2022/09/09 02:15:57;;;;;;;3.67;2.22;;;;;;;9.48;61.78;100428.66;6244401;22;20523;-89
2022/09/09 02:18:49;;;;;;;7.63;2.20;;;;;;;9.34;59.90;100413.97;6217741;23;20409;-89
2022/09/09 02:21:18;;;;;;;6.43;2.25;;;;;;;9.28;60.51;100432.25;6193151;23;20107;-90
2022/09/09 02:23:48;;;;;;;5.68;2.30;;;;;;;9.12;61.08;100423.28;6242939;23;20012;-89
2022/09/09 02:26:20;;;;;;;10.85;2.50;;;;;;;9.22;61.30;100440.72;6192191;23;20012;-89
2022/09/09 02:28:54;;;;;;;7.20;2.67;;;;;;;9.04;61.10;100406.66;6193644;23;20366;-89
2022/09/09 02:33:57;;;;;;;5.97;2.72;;;;;;;8.74;61.67;100397.44;6244739;23;20013;-88
2022/09/09 02:36:26;;;;;;;12.35;2.88;;;;;;;8.68;61.66;100382.19;6180667;23;20039;-89
2022/09/09 02:38:54;;;;;;;6.55;2.75;;;;;;;8.57;62.27;100396.88;6107357;23;20120;-89
2022/09/09 02:41:31;;;;;;;5.75;2.75;;;;;;;8.38;62.80;100392.00;6157274;23;20027;-89
2022/09/09 02:43:58;;;;;;;10.30;3.35;;;;;;;8.29;63.39;100392.78;6156339;23;20013;-89
2022/09/09 02:46:30;;;;;;;7.78;3.13;;;;;;;8.08;63.55;100379.13;6181530;23;20024;-89
2022/09/09 02:49:14;;;;;;;4.60;2.78;;;;;;;8.65;63.65;100457.13;6181177;23;20017;-89
2022/09/09 02:51:50;;;;;;;5.72;3.03;;;;;;;8.19;63.49;100390.84;6156861;23;20081;-89
2022/09/09 02:54:38;;;;;;;13.25;2.80;;;;;;;8.27;64.13;100417.53;6156693;23;20021;-89
2022/09/09 02:57:27;;;;;;;7.93;2.92;;;;;;;8.33;64.17;100415.66;6181537;23;20071;-89
2022/09/09 02:59:57;;;;;;;7.15;3.10;;;;;;;8.67;63.94;100481.38;6158417;23;20494;-90
2022/09/09 03:02:24;;;;;;;11.75;3.35;;;;;;;8.42;64.16;100461.19;6108893;23;20068;-90
2022/09/09 03:04:55;;;;;;;8.82;3.20;;;;;;;8.01;64.63;100405.78;6133669;23;20102;-89
2022/09/09 03:09:50;;;;;;;5.90;3.10;;;;;;;8.21;64.50;100430.38;6183198;23;20101;-89
2022/09/09 03:12:16;;;;;;;6.55;3.53;;;;;;;8.35;64.22;100448.91;6133381;23;20028;-88
2022/09/09 03:17:12;;;;;;;6.15;3.22;;;;;;;8.18;64.51;100419.19;6245988;22;20016;-89
2022/09/09 03:19:45;;;;;;;5.70;3.05;;;;;;;8.19;64.77;100453.50;6244289;23;20450;-88
2022/09/09 03:22:13;;;;;;;6.28;3.17;;;;;;;7.96;65.04;100428.38;6220192;23;20016;-88
2022/09/09 03:24:41;;;;;;;5.88;3.13;;;;;;;7.97;65.22;100410.13;6219605;23;20020;-89
2022/09/09 03:27:08;;;;;;;8.77;3.15;;;;;;;8.10;65.13;100446.94;6219476;23;20046;-87
2022/09/09 03:29:36;;;;;;;7.63;3.22;;;;;;;7.96;65.63;100447.44;6220847;23;20024;-89
2022/09/09 03:32:05;;;;;;;9.95;3.38;;;;;;;8.09;65.87;100473.38;6254898;22;20015;-88
2022/09/09 03:34:31;;;;;;;11.87;3.60;;;;;;;8.08;65.96;100457.28;6274430;22;20012;-87
2022/09/09 03:36:59;;;;;;;12.75;3.47;;;;;;;7.99;65.76;100459.72;6248964;22;20345;-90
2022/09/09 03:39:27;;;;;;;14.40;3.58;;;;;;;8.16;65.69;100476.66;6224029;22;20004;-90
2022/09/09 03:41:53;;;;;;;7.67;3.87;;;;;;;7.83;65.68;100428.09;6223361;22;20035;-89
2022/09/09 03:44:20;;;;;;;9.75;3.97;;;;;;;8.03;65.69;100454.56;6231614;23;20047;-88
2022/09/09 03:49:16;;;;;;;9.20;3.80;;;;;;;7.96;66.00;100477.41;6253866;22;20076;-88
2022/09/09 03:51:43;;;;;;;;;;;;;;;8.19;66.17;100503.34;6228870;23;20357;-87
2022/09/09 03:54:11;;;;;;;10.18;3.35;;;;;;;7.90;66.12;100453.16;6226424;23;19926;-91
2022/09/09 03:56:41;;;;;;;9.40;3.42;;;;;;;8.11;65.88;100484.81;6194949;23;20507;-91
2022/09/09 03:59:11;;;;;;;8.07;3.40;;;;;;;8.28;66.01;100514.56;6220350;23;20040;-89
2022/09/09 04:01:37;;;;;;;7.90;3.47;;;;;;;7.87;65.82;100462.66;6245074;23;20107;-90
2022/09/09 04:04:03;;;;;;;9.95;3.80;;;;;;;7.95;66.15;100464.06;6244811;23;20016;-90
2022/09/09 04:06:30;;;;;;;8.85;4.07;;;;;;;7.95;65.78;100456.72;6244342;23;20354;-89
2022/09/09 04:08:56;;;;;;;9.27;3.83;;;;;;;8.06;66.03;100463.00;6218444;23;20048;-94
2022/09/09 04:11:25;;;;;;;12.88;4.25;;;;;;;8.14;65.34;100457.03;6194852;23;20687;-96
2022/09/09 04:13:53;;;;;;;7.97;4.03;;;;;;;8.24;65.37;100476.13;6195084;23;20039;-89
2022/09/09 04:16:20;;;;;;;6.15;3.50;;;;;;;8.21;65.23;100465.78;6194166;23;20464;-86
2022/09/09 04:18:47;;;;;;;9.15;3.70;;;;;;;8.33;64.85;100470.97;6218503;23;20030;-88
2022/09/09 04:21:15;;;;;;;10.13;3.85;;;;;;;8.42;64.65;100485.72;6219649;23;20103;-89
2022/09/09 04:23:42;;;;;;;9.95;3.80;;;;;;;8.49;65.00;100523.63;6245658;22;20029;-88
2022/09/09 04:26:12;;;;;;;6.68;3.58;;;;;;;8.40;65.04;100506.97;6243818;23;20016;-90
2022/09/09 04:28:39;;;;;;;11.45;3.58;;;;;;;8.17;64.92;100461.94;6218189;23;20020;-89
2022/09/09 04:31:18;;;;;;;9.00;3.70;;;;;;;8.34;64.38;100464.41;6244318;23;20020;-90
2022/09/09 04:33:46;;;;;;;7.80;3.35;;;;;;;8.34;64.09;100448.06;6218695;23;20366;-89
2022/09/09 04:36:12;;;;;;;;;;;;;;;8.88;64.13;100525.88;6194141;23;20050;-88
2022/09/09 04:38:39;;;;;;;8.63;3.63;;;;;;;8.37;63.62;100435.81;6223665;23;19938;-90
2022/09/09 04:41:07;;;;;;;8.88;3.10;;;;;;;8.75;63.18;100502.69;6193705;23;20023;-89
2022/09/09 04:43:34;;;;;;;9.25;3.70;;;;;;;8.63;63.18;100481.13;6219078;23;20103;-90
2022/09/09 04:46:03;;;;;;;56.10;4.57;;;;;;;8.57;63.71;100470.47;6194454;23;20398;-90
2022/09/09 04:48:31;;;;;;;10.88;3.53;;;;;;;9.07;63.15;100534.31;6193536;23;20039;-90
2022/09/09 04:51:05;;;;;;;12.63;3.67;;;;;;;9.06;62.90;100527.22;6194016;23;20016;-90
2022/09/09 04:53:34;;;;;;;8.15;3.40;;;;;;;9.08;62.98;100514.94;6194234;23;20026;-89
2022/09/09 04:56:06;;;;;;;13.35;3.08;;;;;;;9.09;62.16;100510.31;6217814;23;20023;-90
2022/09/09 04:58:37;;;;;;;9.27;3.53;;;;;;;9.01;62.22;100506.22;6194256;23;20094;-88
2022/09/09 05:01:17;;;;;;;6.57;3.40;;;;;;;8.83;62.58;100474.84;6243511;23;20446;-89
2022/09/09 05:03:46;;;;;;;10.50;3.13;;;;;;;9.11;61.82;100529.97;6194027;23;20023;-89
2022/09/09 05:06:17;;;;;;;9.90;3.67;;;;;;;9.12;62.39;100532.41;6218700;23;20016;-88
2022/09/09 05:08:46;;;;;;;6.00;3.17;;;;;;;9.28;61.67;100540.59;6193778;23;20026;-89
2022/09/09 05:11:19;;;;;;;11.13;3.53;;;;;;;9.49;61.40;100555.84;6193850;23;20099;-89
2022/09/09 05:13:46;;;;;;;9.05;3.60;;;;;;;9.09;61.29;100511.13;6194726;23;20012;-91
2022/09/09 05:16:14;;;;;;;10.18;3.70;;;;;;;9.26;61.25;100526.38;6193726;23;20016;-87
2022/09/09 05:18:42;;;;;;;13.80;3.70;;;;;;;9.56;61.53;100541.91;6244675;22;20012;-86
2022/09/09 05:21:10;;;;;;;15.00;3.38;;;;;;;9.68;60.13;100544.34;6215937;23;20020;-86
2022/09/09 05:23:37;;;;;;;12.57;3.70;;;;;;;9.52;59.89;100506.16;6243134;23;20016;-87
2022/09/09 05:26:04;;;;;;;14.18;3.92;;;;;;;9.61;59.63;100517.34;6243422;23;20038;-88
2022/09/09 05:28:31;;;;;;;13.65;3.55;;;;;;;9.66;59.38;100528.22;6217764;23;20126;-87
2022/09/09 05:31:04;;;;;;;15.63;3.77;;;;;;;9.94;59.62;100572.41;6244754;22;20024;-87
2022/09/09 05:33:33;;;;;;;13.80;3.78;;;;;;;9.81;59.37;100544.56;6243277;23;20068;-87
2022/09/09 05:36:03;;;;;;;10.18;3.20;;;;;;;9.70;58.34;100514.81;6217430;23;20016;-88
2022/09/09 05:38:30;;;;;;;11.20;3.90;;;;;;;9.77;58.18;100505.28;6217105;23;20020;-88
2022/09/09 05:40:56;;;;;;;;;;;;;;;10.20;58.71;100579.41;6192941;23;20016;-89
2022/09/09 05:46:07;;;;;;;18.00;4.15;;;;;;;10.31;58.02;100574.75;6245117;22;20020;-88
2022/09/09 05:48:37;;;;;;;27.20;4.03;;;;;;;10.06;57.04;100535.47;6217567;23;20346;-90
2022/09/09 05:51:29;;;;;;;17.40;3.50;;;;;;;10.05;56.87;100517.44;6243285;23;20527;-90
2022/09/09 05:54:00;;;;;;;25.02;3.95;;;;;;;9.97;56.86;100498.91;6217906;23;20020;-89
2022/09/09 05:56:30;;;;;;;16.83;3.80;;;;;;;10.15;56.20;100521.22;6242931;23;20020;-88
2022/09/09 05:58:59;;;;;;;11.98;3.45;;;;;;;10.03;56.20;100492.34;6242897;23;20020;-90
2022/09/09 06:01:30;;;;;;;15.38;3.78;;;;;;;10.15;56.46;100516.56;6192608;23;20027;-86
2022/09/09 06:03:57;;;;;;;34.55;4.45;;;;;;;10.27;55.39;100529.94;6244095;22;20442;-87
2022/09/09 06:06:26;;;;;;;42.72;4.30;;;;;;;10.39;55.51;100538.63;6217861;23;20012;-87
2022/09/09 06:08:59;;;;;;;24.35;3.90;;;;;;;10.27;55.02;100519.03;6242855;23;20016;-85
2022/09/09 06:11:31;;;;;;;25.08;3.45;;;;;;;10.62;54.82;100580.06;6242569;23;20019;-87
2022/09/09 06:14:00;;;;;;;11.43;2.63;;;;;;;10.30;54.93;100543.06;6244555;22;20385;-85
2022/09/09 06:16:29;;;;;;;21.70;3.17;;;;;;;10.35;55.11;100562.97;6217046;23;20051;-86
2022/09/09 06:18:57;;;;;;;28.60;3.30;;;;;;;10.55;55.14;100581.19;6217182;23;20023;-86
2022/09/09 06:21:38;;;;;;;31.10;4.00;;;;;;;10.58;54.75;100579.81;6245227;23;20066;-92
2022/09/09 06:24:07;;;;;;;27.75;3.72;;;;;;;10.67;53.95;100580.03;6242700;23;20016;-85
2022/09/09 06:26:36;;;;;;;42.28;3.58;;;;;;;10.73;53.17;100587.13;6244139;22;20026;-85
2022/09/09 06:29:04;;;;;;;15.40;2.80;;;;;;;10.70;52.93;100584.94;6218192;23;20013;-87
2022/09/09 06:31:33;;;;;;;13.85;2.60;;;;;;;10.77;52.44;100591.72;6217421;23;20023;-85
2022/09/09 06:34:07;;;;;;;25.90;4.70;;;;;;;10.81;51.48;100594.72;6195307;23;20008;-86
2022/09/09 06:36:37;;;;;;;9.45;1.90;;;;;;;10.70;50.80;100577.56;6245777;22;20016;-86
2022/09/09 06:39:04;;;;;;;17.95;2.35;;;;;;;10.73;51.02;100576.19;6242301;23;20047;-85
2022/09/09 06:41:32;;;;;;;18.02;2.65;;;;;;;10.81;50.69;100576.38;6193866;23;20091;-83
2022/09/09 06:44:01;;;;;;;24.17;2.63;;;;;;;10.86;51.43;100556.41;6217947;23;20038;-86
2022/09/09 06:46:39;;;;;;;10.88;2.55;;;;;;;11.00;49.60;100575.72;6218531;23;20012;-83
2022/09/09 06:49:08;;;;;;;27.85;3.10;;;;;;;11.23;50.09;100609.75;6244421;22;20074;-84
2022/09/09 06:51:37;;;;;;;15.40;2.78;;;;;;;10.91;50.40;100542.66;6242806;23;20023;-83
2022/09/09 06:54:06;;;;;;;31.52;3.75;;;;;;;11.47;50.78;100607.91;6242768;23;20023;-85
2022/09/09 06:56:35;;;;;;;15.68;3.22;;;;;;;11.61;49.41;100609.97;6244147;22;20016;-83
2022/09/09 06:59:08;;;;;;;15.75;2.45;;;;;;;11.60;46.82;100600.13;6243589;22;20012;-84
2022/09/09 07:01:38;;;;;;;6.20;1.67;;;;;;;11.48;46.51;100597.78;6243916;22;20020;-84
2022/09/09 07:04:10;;;;;;;9.70;2.17;;;;;;;11.51;46.59;100581.56;6217735;23;20020;-85
2022/09/09 07:06:42;;;;;;;20.20;3.13;;;;;;;11.46;46.55;100583.56;6243160;22;20016;-84
2022/09/09 07:09:13;;;;;;;35.20;3.92;;;;;;;11.43;43.87;100571.25;6241241;23;20019;-85
2022/09/09 07:11:47;;;;;;;17.20;2.53;;;;;;;11.66;44.44;100604.47;6240924;23;20354;-85
2022/09/09 07:14:15;;;;;;;35.60;4.13;;;;;;;11.55;44.99;100576.34;6240227;23;20020;-89
2022/09/09 07:16:46;;;;;;;27.17;3.10;;;;;;;11.96;45.16;100617.06;6242494;22;20020;-86
2022/09/09 07:19:14;;;;;;;38.13;3.40;;;;;;;11.88;45.50;100598.50;6214700;23;20024;-87
2022/09/09 07:21:42;;;;;;;21.25;3.35;;;;;;;11.88;45.97;100579.31;6240021;23;20031;-86
2022/09/09 07:24:11;;;;;;;13.98;3.88;;;;;;;11.88;43.69;100562.88;6239143;23;20050;-85
2022/09/09 07:26:40;;;;;;;10.75;2.13;;;;;;;12.27;44.24;100592.88;6189638;23;20024;-85
2022/09/09 07:29:08;;;;;;;16.40;2.95;;;;;;;12.22;43.73;100590.19;6238562;23;20103;-87
2022/09/09 07:31:37;;;;;;;7.95;3.00;;;;;;;12.21;44.23;100583.88;6240511;22;20453;-86
2022/09/09 07:34:06;;;;;;;24.17;3.00;;;;;;;12.26;43.18;100588.50;6237766;23;20027;-87
2022/09/09 07:36:34;;;;;;;;;;;;;;;12.59;43.98;100638.81;6238574;23;20019;-84
2022/09/09 07:39:10;;;;;;;16.10;2.88;;;;;;;12.50;43.66;100642.50;6254505;22;19921;-86
2022/09/09 07:41:44;;;;;;;11.95;1.92;;;;;;;12.41;42.83;100653.28;6244150;22;20349;-84
2022/09/09 07:44:17;;;;;;;5.47;1.90;;;;;;;11.96;43.32;100614.34;6242359;22;20077;-85
2022/09/09 07:46:45;;;;;;;10.93;1.92;;;;;;;12.07;42.77;100647.94;6242386;22;20039;-85
2022/09/09 07:49:17;;;;;;;15.15;2.25;;;;;;;11.99;42.59;100613.75;6243911;22;20040;-92
2022/09/09 07:51:47;;;;;;;15.48;2.42;;;;;;;12.37;43.92;100641.28;6244657;22;20020;-91
2022/09/09 07:54:20;;;;;;;13.23;2.88;;;;;;;12.40;42.57;100619.56;6217011;22;20015;-85
2022/09/09 07:56:49;;;;;;;10.65;2.35;;;;;;;12.55;43.02;100610.34;6242313;22;20020;-85
2022/09/09 07:59:17;;;;;;;29.27;3.03;;;;;;;12.90;44.14;100639.22;6240777;22;20020;-85
2022/09/09 08:01:49;;;;;;;24.00;2.88;;;;;;;12.70;41.45;100623.84;6240956;22;20453;-87
2022/09/09 08:04:20;;;;;;;48.60;4.22;;;;;;;12.52;41.37;100632.06;6241079;22;20450;-85
2022/09/09 08:06:50;;;;;;;19.35;2.50;;;;;;;12.43;41.41;100656.56;6240834;22;20019;-84
2022/09/09 08:09:19;;;;;;;25.63;3.17;;;;;;;12.03;41.79;100614.00;6239855;22;20015;-85
2022/09/09 08:11:47;;;;;;;24.23;2.42;;;;;;;12.14;42.29;100631.94;6267548;22;20023;-86
2022/09/09 08:14:14;;;;;;;14.55;2.30;;;;;;;12.01;41.38;100610.72;6214139;22;20019;-85
2022/09/09 08:16:44;;;;;;;17.02;2.88;;;;;;;11.97;41.34;100625.00;6239188;22;20023;-87
2022/09/09 08:19:15;;;;;;;20.30;2.63;;;;;;;12.13;41.59;100672.25;6266109;22;20023;-83
2022/09/09 08:21:42;;;;;;;9.00;2.13;;;;;;;11.95;41.86;100635.44;6213811;22;20023;-83
2022/09/09 08:24:11;;;;;;;10.48;2.25;;;;;;;12.36;41.88;100665.16;6188374;22;20016;-87
2022/09/09 08:26:43;;;;;;;23.42;2.30;;;;;;;12.55;40.67;100650.66;6213020;22;20012;-83
2022/09/09 08:29:13;;;;;;;41.95;3.90;;;;;;;12.76;40.96;100646.56;6238068;22;20020;-84
2022/09/09 08:31:44;;;;;;;9.25;1.85;;;;;;;12.98;40.18;100661.63;6238043;22;20015;-84
2022/09/09 08:34:11;;;;;;;21.75;2.60;;;;;;;12.91;40.46;100637.28;6265435;22;20019;-84
2022/09/09 08:36:39;;;;;;;;;;;;;;;12.85;41.10;100661.25;6212446;22;20099;-86
2022/09/09 08:39:08;;;;;;;15.10;2.70;;;;;;;12.52;40.89;100641.09;6236540;22;19915;-84
2022/09/09 08:42:02;;;;;;;25.77;2.97;;;;;;;12.62;41.30;100671.16;6238117;22;20012;-84
2022/09/09 08:44:48;;;;;;;30.73;3.72;;;;;;;12.66;41.15;100674.94;6236647;22;20043;-84
2022/09/09 08:47:40;;;;;;;13.07;2.90;;;;;;;12.67;41.78;100640.88;6215122;22;20016;-83
2022/09/09 08:50:17;;;;;;;12.60;2.53;;;;;;;13.03;40.52;100665.13;6216069;22;20023;-82
2022/09/09 08:52:52;;;;;;;57.67;5.67;;;;;;;13.15;38.84;100670.19;6239283;22;20015;-85
2022/09/09 08:56:01;;;;;;;35.00;4.40;;;;;;;13.14;39.92;100661.13;6236378;22;20251;-84
2022/09/09 08:58:46;;;;;;;9.23;2.30;;;;;;;13.31;39.89;100659.78;6253563;22;20020;-83
2022/09/09 09:01:35;;;;;;;2.63;1.52;;;;;;;13.44;40.33;100663.72;6233117;22;20023;-84
2022/09/09 09:04:08;;;;;;;16.50;2.72;;;;;;;13.49;39.60;100669.94;6261384;22;20035;-84
2022/09/09 09:07:07;;;;;;;5.57;2.25;;;;;;;13.11;40.21;100648.00;6235023;22;20031;-89
2022/09/09 09:10:08;;;;;;;16.95;3.13;;;;;;;13.13;41.67;100675.94;6130230;23;20025;-85
2022/09/09 09:12:43;;;;;;;10.75;2.30;;;;;;;13.06;41.63;100677.44;6122075;23;20025;-82
2022/09/09 09:15:24;;;;;;;11.85;2.42;;;;;;;12.80;41.19;100625.63;6101680;23;20053;-89
2022/09/09 09:17:55;;;;;;;34.85;3.38;;;;;;;12.74;39.84;100617.78;6124845;23;20021;-89
2022/09/09 09:20:42;;;;;;;7.97;1.95;;;;;;;13.08;39.61;100667.81;6116475;23;20021;-90
2022/09/09 09:23:20;;;;;;;6.88;2.10;;;;;;;13.07;40.68;100648.88;6088305;23;20786;-85
2022/09/09 09:25:47;;;;;;;13.57;2.45;;;;;;;13.34;39.84;100671.03;6139511;23;20514;-86
2022/09/09 09:28:17;;;;;;;8.45;1.83;;;;;;;13.36;39.83;100632.25;6151816;23;20100;-84
2022/09/09 09:31:03;;;;;;;14.65;2.15;;;;;;;13.69;39.16;100668.78;6126572;23;20021;-84
2022/09/09 09:33:54;;;;;;;21.15;3.15;;;;;;;13.77;39.27;100639.81;6102954;23;20026;-82
2022/09/09 09:36:56;;;;;;;21.60;2.63;;;;;;;13.81;40.51;100663.66;6151638;23;20030;-85
2022/09/09 09:39:30;;;;;;;22.38;3.10;;;;;;;13.54;40.37;100642.41;6012735;23;20086;-88
2022/09/09 09:42:17;;;;;;;18.45;2.42;;;;;;;13.01;40.63;100633.56;6036239;23;20023;-86
2022/09/09 09:44:46;;;;;;;7.70;2.40;;;;;;;13.15;42.04;100654.50;6015018;23;20613;-86
2022/09/09 09:47:23;;;;;;;7.20;2.05;;;;;;;12.99;41.72;100639.38;6130414;23;20045;-89
2022/09/09 09:50:02;;;;;;;11.68;2.22;;;;;;;13.11;40.86;100674.59;6126507;23;20021;-86
2022/09/09 09:52:35;;;;;;;8.40;1.90;;;;;;;12.65;40.35;100626.66;6151602;23;20056;-87
2022/09/09 09:55:07;;;;;;;10.10;2.10;;;;;;;12.71;40.07;100630.16;6127195;23;20316;-86
2022/09/09 09:57:34;;;;;;;10.05;1.70;;;;;;;12.89;39.69;100654.06;6153088;23;20018;-87
2022/09/09 10:00:17;;;;;;;7.50;1.80;;;;;;;13.09;38.77;100669.41;6127691;23;20013;-86
2022/09/09 10:02:52;;;;;;;6.07;1.63;;;;;;;13.22;40.17;100650.59;6128175;23;20028;-84
2022/09/09 10:05:30;;;;;;;7.75;1.90;;;;;;;13.45;39.62;100648.88;6126374;23;20045;-84
2022/09/09 10:08:09;;;;;;;4.85;2.13;;;;;;;13.75;41.37;100670.34;6102195;23;20527;-91
2022/09/09 10:10:47;;;;;;;4.60;1.70;;;;;;;13.66;40.28;100674.09;6152616;23;20108;-90
2022/09/09 10:13:23;;;;;;;7.70;1.85;;;;;;;13.28;41.02;100680.44;6150297;23;20184;-84
2022/09/09 10:16:00;;;;;;;7.90;2.20;;;;;;;13.14;41.31;100674.84;6218048;22;20011;-83
2022/09/09 10:18:39;;;;;;;6.57;1.92;;;;;;;13.24;41.47;100682.13;6249384;22;20019;-84
2022/09/09 10:21:08;;;;;;;12.05;2.47;;;;;;;13.09;40.79;100677.66;6222562;22;20344;-93
2022/09/09 10:23:59;;;;;;;10.85;1.90;;;;;;;13.36;40.02;100679.75;6274771;22;20024;-83
2022/09/09 10:26:44;;;;;;;9.35;1.80;;;;;;;13.70;39.62;100673.16;6248193;22;20026;-85
2022/09/09 10:29:47;;;;;;;14.43;2.33;;;;;;;14.27;40.77;100672.97;6247607;22;20362;-85
2022/09/09 10:32:33;;;;;;;9.60;2.22;;;;;;;14.66;39.63;100677.19;6275166;22;20015;-85
2022/09/09 10:35:08;;;;;;;4.53;2.05;;;;;;;14.25;38.08;100631.22;6222596;22;20016;-91
2022/09/09 10:38:00;;;;;;;12.02;1.85;;;;;;;14.55;39.48;100669.16;6250423;22;20064;-93
2022/09/09 10:40:51;;;;;;;5.22;1.70;;;;;;;14.41;38.32;100681.25;6222927;22;20023;-86
2022/09/09 10:43:34;;;;;;;11.88;2.08;;;;;;;14.14;39.51;100682.03;6248300;22;20024;-93
2022/09/09 10:46:35;;;;;;;4.72;1.67;;;;;;;13.63;38.03;100653.50;6274628;22;20475;-87
2022/09/09 10:49:30;;;;;;;2.95;1.38;;;;;;;13.39;38.10;100634.41;6274606;22;20476;-86
2022/09/09 10:52:55;;;;;;;6.65;1.83;;;;;;;13.86;36.76;100681.97;6185271;23;20083;-88
2022/09/09 10:55:33;;;;;;;6.78;1.98;;;;;;;13.77;37.63;100615.88;6168130;23;20021;-88
2022/09/09 10:58:02;;;;;;;6.90;2.08;;;;;;;14.34;37.63;100665.97;6186020;23;20021;-85
2022/09/09 11:00:31;;;;;;;12.57;2.42;;;;;;;14.62;36.95;100657.72;6211326;23;20024;-85
2022/09/09 11:03:03;;;;;;;4.40;1.65;;;;;;;14.32;36.39;100618.69;6186424;23;20028;-87
2022/09/09 11:05:52;;;;;;;5.97;1.80;;;;;;;13.99;37.06;100661.94;6211471;23;20021;-87
2022/09/09 11:08:21;;;;;;;3.15;1.88;;;;;;;14.01;37.69;100628.66;6211393;23;20027;-85
2022/09/09 11:11:07;;;;;;;9.07;2.00;;;;;;;14.28;37.83;100636.94;6210927;23;20020;-86
2022/09/09 11:13:45;;;;;;;5.25;1.70;;;;;;;14.37;37.13;100611.44;6210838;23;20520;-89
2022/09/09 11:16:16;;;;;;;7.05;1.50;;;;;;;14.63;37.86;100642.84;6210648;23;20082;-86
2022/09/09 11:18:45;;;;;;;17.33;2.13;;;;;;;14.42;38.38;100658.94;6186274;23;20021;-87
2022/09/09 11:21:22;;;;;;;17.60;2.50;;;;;;;14.13;38.61;100670.22;6214590;23;20044;-86
2022/09/09 11:23:56;;;;;;;13.20;2.25;;;;;;;14.00;39.14;100649.00;6189996;23;20361;-87
2022/09/09 11:26:43;;;;;;;11.80;2.53;;;;;;;14.26;38.56;100685.09;6187221;23;20040;-86
2022/09/09 11:29:43;;;;;;;15.45;2.58;;;;;;;14.19;39.77;100684.69;6229824;22;20039;-85
2022/09/09 11:32:44;;;;;;;19.60;2.38;;;;;;;13.91;38.53;100651.66;6248500;22;20441;-85
2022/09/09 11:35:26;;;;;;;38.83;3.83;;;;;;;14.09;38.96;100680.19;6248412;22;20693;-89
2022/09/09 11:38:14;;;;;;;19.30;2.72;;;;;;;14.12;39.76;100678.78;6275107;22;20523;-83
2022/09/09 11:40:41;;;;;;;19.63;2.45;;;;;;;14.38;39.84;100662.63;6248109;22;20335;-86
2022/09/09 11:43:12;;;;;;;18.65;2.65;;;;;;;14.66;39.98;100650.47;6274953;22;20022;-88
2022/09/09 11:45:41;;;;;;;12.63;3.03;;;;;;;14.97;39.10;100638.81;6222755;22;20072;-85
2022/09/09 11:48:25;;;;;;;64.93;7.95;;;;;;;15.41;37.73;100648.25;6247756;22;20080;-84
2022/09/09 11:51:07;;;;;;;13.10;4.03;;;;;;;15.31;36.83;100671.34;6274748;22;20026;-85
2022/09/09 11:53:35;;;;;;;7.53;2.40;;;;;;;14.54;37.82;100626.25;6275160;22;20023;-91
2022/09/09 11:56:14;;;;;;;20.08;3.92;;;;;;;14.54;38.28;100639.19;6246860;22;20318;-86
2022/09/09 11:58:53;;;;;;;36.45;5.75;;;;;;;14.76;37.34;100683.28;6275873;22;20077;-85
2022/09/09 12:01:45;;;;;;;21.73;2.88;;;;;;;14.82;37.74;100675.75;6249203;22;20016;-88
2022/09/09 12:04:24;;;;;;;13.55;3.15;;;;;;;14.85;37.04;100677.88;6196408;22;20060;-83
2022/09/09 12:07:29;;;;;;;17.98;3.47;;;;;;;14.86;38.07;100679.50;6248353;22;20482;-84
2022/09/09 12:10:36;;;;;;;44.25;4.20;;;;;;;14.75;37.63;100670.66;6276001;22;20026;-80
2022/09/09 12:13:26;;;;;;;28.58;3.13;;;;;;;14.86;38.58;100667.69;6275410;22;20020;-80
2022/09/09 12:16:05;;;;;;;14.20;2.45;;;;;;;15.07;37.52;100668.06;6275488;22;20018;-79
2022/09/09 12:18:39;;;;;;;16.63;2.40;;;;;;;15.13;38.18;100658.53;6274706;22;20098;-80
2022/09/09 12:21:29;;;;;;;25.15;2.70;;;;;;;15.09;37.30;100663.88;6274340;22;20754;-81
2022/09/09 12:24:07;;;;;;;14.85;2.00;;;;;;;14.65;35.93;100654.38;6247669;22;20018;-81